sensor_id;sensor_type;location;lat;lon;timestamp;temperature;humidity
9103;DHT22;4587;51.434;6.788;2023-02-28T00:00:13;1.70;99.90
9103;DHT22;4587;51.434;6.788;2023-02-28T00:02:41;1.70;99.90
9103;DHT22;4587;51.434;6.788;2023-02-28T00:05:07;1.80;99.90
9103;DHT22;4587;51.434;6.788;2023-02-28T00:07:34;1.70;99.90
9103;DHT22;4587;51.434;6.788;2023-02-28T00:10:00;1.60;99.90
9103;DHT22;4587;51.434;6.788;2023-02-28T00:12:26;1.50;99.90
9103;DHT22;4587;51.434;6.788;2023-02-28T00:14:52;1.50;99.90
9103;DHT22;4587;51.434;6.788;2023-02-28T00:17:18;1.40;99.90
9103;DHT22;4587;51.434;6.788;2023-02-28T00:19:51;1.40;99.90
9103;DHT22;4587;51.434;6.788;2023-02-28T00:22:19;1.50;99.90
9103;DHT22;4587;51.434;6.788;2023-02-28T00:24:45;1.50;99.90
9103;DHT22;4587;51.434;6.788;2023-02-28T00:27:11;1.60;99.90
9103;DHT22;4587;51.434;6.788;2023-02-28T00:29:37;1.60;99.90
9103;DHT22;4587;51.434;6.788;2023-02-28T00:32:03;1.80;99.90
9103;DHT22;4587;51.434;6.788;2023-02-28T00:34:29;1.80;99.90
9103;DHT22;4587;51.434;6.788;2023-02-28T00:36:55;1.80;99.90
9103;DHT22;4587;51.434;6.788;2023-02-28T00:39:20;1.80;99.90
9103;DHT22;4587;51.434;6.788;2023-02-28T00:41:46;1.80;99.90
9103;DHT22;4587;51.434;6.788;2023-02-28T00:44:12;1.80;99.90
9103;DHT22;4587;51.434;6.788;2023-02-28T00:46:37;1.80;99.90
9103;DHT22;4587;51.434;6.788;2023-02-28T00:49:03;1.80;99.90
9103;DHT22;4587;51.434;6.788;2023-02-28T00:51:28;1.90;99.90
9103;DHT22;4587;51.434;6.788;2023-02-28T00:53:54;1.80;99.90
9103;DHT22;4587;51.434;6.788;2023-02-28T00:56:20;1.80;99.90
9103;DHT22;4587;51.434;6.788;2023-02-28T00:58:45;1.80;99.90
9103;DHT22;4587;51.434;6.788;2023-02-28T01:01:11;1.90;99.90
9103;DHT22;4587;51.434;6.788;2023-02-28T01:03:36;1.80;99.90
9103;DHT22;4587;51.434;6.788;2023-02-28T01:06:02;1.70;99.90
9103;DHT22;4587;51.434;6.788;2023-02-28T01:08:27;1.70;99.90
9103;DHT22;4587;51.434;6.788;2023-02-28T01:10:53;1.70;99.90
9103;DHT22;4587;51.434;6.788;2023-02-28T01:13:19;1.60;99.90
9103;DHT22;4587;51.434;6.788;2023-02-28T01:15:54;1.60;99.90
9103;DHT22;4587;51.434;6.788;2023-02-28T01:18:21;1.60;99.90
9103;DHT22;4587;51.434;6.788;2023-02-28T01:20:47;1.70;99.90
9103;DHT22;4587;51.434;6.788;2023-02-28T01:23:12;1.60;99.90
9103;DHT22;4587;51.434;6.788;2023-02-28T01:25:38;1.60;99.90
9103;DHT22;4587;51.434;6.788;2023-02-28T01:28:04;1.60;99.90
9103;DHT22;4587;51.434;6.788;2023-02-28T01:30:31;1.50;99.90
9103;DHT22;4587;51.434;6.788;2023-02-28T01:32:57;1.60;99.90
9103;DHT22;4587;51.434;6.788;2023-02-28T01:35:22;1.60;99.90
9103;DHT22;4587;51.434;6.788;2023-02-28T01:37:48;1.60;99.90
9103;DHT22;4587;51.434;6.788;2023-02-28T01:40:14;1.60;99.90
9103;DHT22;4587;51.434;6.788;2023-02-28T01:42:40;1.60;99.90
9103;DHT22;4587;51.434;6.788;2023-02-28T01:47:57;1.50;99.90
9103;DHT22;4587;51.434;6.788;2023-02-28T01:50:27;1.50;99.90
9103;DHT22;4587;51.434;6.788;2023-02-28T01:52:56;1.40;99.90
9103;DHT22;4587;51.434;6.788;2023-02-28T01:55:25;1.40;99.90
9103;DHT22;4587;51.434;6.788;2023-02-28T01:57:56;1.40;99.90
9103;DHT22;4587;51.434;6.788;2023-02-28T02:00:24;1.30;99.90
9103;DHT22;4587;51.434;6.788;2023-02-28T02:02:54;1.40;99.90
9103;DHT22;4587;51.434;6.788;2023-02-28T02:05:24;1.40;99.90
9103;DHT22;4587;51.434;6.788;2023-02-28T02:07:54;1.20;99.90
9103;DHT22;4587;51.434;6.788;2023-02-28T02:10:27;1.20;99.90
9103;DHT22;4587;51.434;6.788;2023-02-28T02:15:39;1.20;99.90
9103;DHT22;4587;51.434;6.788;2023-02-28T02:27:03;1.10;99.90
9103;DHT22;4587;51.434;6.788;2023-02-28T02:29:41;1.00;99.90
9103;DHT22;4587;51.434;6.788;2023-02-28T02:38:09;0.90;99.90
9103;DHT22;4587;51.434;6.788;2023-02-28T02:41:00;0.80;99.90
9103;DHT22;4587;51.434;6.788;2023-02-28T02:43:38;0.90;99.90
9103;DHT22;4587;51.434;6.788;2023-02-28T02:46:10;0.80;99.90
9103;DHT22;4587;51.434;6.788;2023-02-28T02:48:39;0.70;99.90
9103;DHT22;4587;51.434;6.788;2023-02-28T02:51:10;0.70;99.90
9103;DHT22;4587;51.434;6.788;2023-02-28T02:53:46;0.70;99.90
9103;DHT22;4587;51.434;6.788;2023-02-28T02:56:16;0.80;99.90
9103;DHT22;4587;51.434;6.788;2023-02-28T02:58:44;0.80;99.90
9103;DHT22;4587;51.434;6.788;2023-02-28T03:01:20;0.80;99.90
9103;DHT22;4587;51.434;6.788;2023-02-28T03:03:57;0.70;99.90
9103;DHT22;4587;51.434;6.788;2023-02-28T03:06:24;0.60;99.90
9103;DHT22;4587;51.434;6.788;2023-02-28T03:08:50;0.60;99.90
9103;DHT22;4587;51.434;6.788;2023-02-28T03:11:15;0.60;99.90
9103;DHT22;4587;51.434;6.788;2023-02-28T03:25:28;0.40;99.90
9103;DHT22;4587;51.434;6.788;2023-02-28T03:28:19;0.50;99.90
9103;DHT22;4587;51.434;6.788;2023-02-28T03:30:56;0.50;99.90
9103;DHT22;4587;51.434;6.788;2023-02-28T03:33:31;0.50;99.90
9103;DHT22;4587;51.434;6.788;2023-02-28T03:36:07;0.40;99.90
9103;DHT22;4587;51.434;6.788;2023-02-28T03:38:46;0.40;99.90
9103;DHT22;4587;51.434;6.788;2023-02-28T03:41:21;0.40;99.90
9103;DHT22;4587;51.434;6.788;2023-02-28T03:44:13;0.50;99.90
9103;DHT22;4587;51.434;6.788;2023-02-28T03:46:54;0.50;99.90
9103;DHT22;4587;51.434;6.788;2023-02-28T03:49:28;0.50;99.90
9103;DHT22;4587;51.434;6.788;2023-02-28T03:51:58;0.30;99.90
9103;DHT22;4587;51.434;6.788;2023-02-28T03:54:52;0.30;99.90
9103;DHT22;4587;51.434;6.788;2023-02-28T03:57:39;0.20;99.90
9103;DHT22;4587;51.434;6.788;2023-02-28T04:00:12;0.10;99.90
9103;DHT22;4587;51.434;6.788;2023-02-28T04:02:40;0.00;99.90
9103;DHT22;4587;51.434;6.788;2023-02-28T04:05:07;0.00;99.90
9103;DHT22;4587;51.434;6.788;2023-02-28T04:07:33;0.00;99.90
9103;DHT22;4587;51.434;6.788;2023-02-28T04:09:59;0.00;99.90
9103;DHT22;4587;51.434;6.788;2023-02-28T04:12:25;0.10;99.90
9103;DHT22;4587;51.434;6.788;2023-02-28T04:14:50;0.10;99.90
9103;DHT22;4587;51.434;6.788;2023-02-28T04:17:16;0.10;99.90
9103;DHT22;4587;51.434;6.788;2023-02-28T04:19:43;0.10;99.90
9103;DHT22;4587;51.434;6.788;2023-02-28T04:22:09;0.30;99.90
9103;DHT22;4587;51.434;6.788;2023-02-28T04:24:35;0.20;99.90
9103;DHT22;4587;51.434;6.788;2023-02-28T04:27:01;0.20;99.90
9103;DHT22;4587;51.434;6.788;2023-02-28T04:29:29;0.10;99.90
9103;DHT22;4587;51.434;6.788;2023-02-28T04:31:56;0.00;99.90
9103;DHT22;4587;51.434;6.788;2023-02-28T04:34:26;0.00;99.90
9103;DHT22;4587;51.434;6.788;2023-02-28T04:36:52;0.00;99.90
9103;DHT22;4587;51.434;6.788;2023-02-28T04:39:20;0.00;99.90
9103;DHT22;4587;51.434;6.788;2023-02-28T04:41:46;0.10;99.90
9103;DHT22;4587;51.434;6.788;2023-02-28T04:44:13;0.10;99.90
9103;DHT22;4587;51.434;6.788;2023-02-28T04:46:39;0.10;99.90
9103;DHT22;4587;51.434;6.788;2023-02-28T04:49:05;0.20;99.90
9103;DHT22;4587;51.434;6.788;2023-02-28T04:51:30;0.20;99.90
9103;DHT22;4587;51.434;6.788;2023-02-28T04:53:56;0.20;99.90
9103;DHT22;4587;51.434;6.788;2023-02-28T04:56:22;0.20;99.90
9103;DHT22;4587;51.434;6.788;2023-02-28T04:58:48;0.20;99.90
9103;DHT22;4587;51.434;6.788;2023-02-28T05:03:44;0.20;99.90
9103;DHT22;4587;51.434;6.788;2023-02-28T05:06:11;0.30;99.90
9103;DHT22;4587;51.434;6.788;2023-02-28T05:08:37;0.30;99.90
9103;DHT22;4587;51.434;6.788;2023-02-28T05:11:07;0.30;99.90
9103;DHT22;4587;51.434;6.788;2023-02-28T05:13:37;0.30;99.90
9103;DHT22;4587;51.434;6.788;2023-02-28T05:16:02;0.20;99.90
9103;DHT22;4587;51.434;6.788;2023-02-28T05:18:28;0.30;99.90
9103;DHT22;4587;51.434;6.788;2023-02-28T05:20:54;0.10;99.90
9103;DHT22;4587;51.434;6.788;2023-02-28T05:23:20;0.20;99.90
9103;DHT22;4587;51.434;6.788;2023-02-28T05:25:46;0.20;99.90
9103;DHT22;4587;51.434;6.788;2023-02-28T05:28:12;0.20;99.90
9103;DHT22;4587;51.434;6.788;2023-02-28T05:30:37;0.10;99.90
9103;DHT22;4587;51.434;6.788;2023-02-28T05:33:03;0.10;99.90
9103;DHT22;4587;51.434;6.788;2023-02-28T05:35:28;0.00;99.90
9103;DHT22;4587;51.434;6.788;2023-02-28T05:37:54;0.00;99.90
9103;DHT22;4587;51.434;6.788;2023-02-28T05:40:20;0.00;99.90
9103;DHT22;4587;51.434;6.788;2023-02-28T05:42:50;0.00;99.90
9103;DHT22;4587;51.434;6.788;2023-02-28T05:45:16;0.00;99.90
9103;DHT22;4587;51.434;6.788;2023-02-28T05:47:42;0.10;99.90
9103;DHT22;4587;51.434;6.788;2023-02-28T05:50:08;0.00;99.90
9103;DHT22;4587;51.434;6.788;2023-02-28T05:52:36;0.10;99.90
9103;DHT22;4587;51.434;6.788;2023-02-28T05:55:01;0.00;99.90
9103;DHT22;4587;51.434;6.788;2023-02-28T05:57:27;0.10;99.90
9103;DHT22;4587;51.434;6.788;2023-02-28T05:59:53;0.00;99.90
9103;DHT22;4587;51.434;6.788;2023-02-28T06:02:18;0.00;99.90
9103;DHT22;4587;51.434;6.788;2023-02-28T06:04:44;0.10;99.90
9103;DHT22;4587;51.434;6.788;2023-02-28T06:07:10;0.10;99.90
9103;DHT22;4587;51.434;6.788;2023-02-28T06:09:36;0.10;99.90
9103;DHT22;4587;51.434;6.788;2023-02-28T06:12:04;0.00;99.90
9103;DHT22;4587;51.434;6.788;2023-02-28T06:14:31;0.10;99.90
9103;DHT22;4587;51.434;6.788;2023-02-28T06:16:57;0.00;99.90
9103;DHT22;4587;51.434;6.788;2023-02-28T06:19:23;0.00;99.90
9103;DHT22;4587;51.434;6.788;2023-02-28T06:21:51;0.10;99.90
9103;DHT22;4587;51.434;6.788;2023-02-28T06:24:21;0.00;99.90
9103;DHT22;4587;51.434;6.788;2023-02-28T06:26:48;0.00;99.90
9103;DHT22;4587;51.434;6.788;2023-02-28T06:29:14;0.00;99.90
9103;DHT22;4587;51.434;6.788;2023-02-28T06:31:44;0.00;99.90
9103;DHT22;4587;51.434;6.788;2023-02-28T06:34:11;0.00;99.90
9103;DHT22;4587;51.434;6.788;2023-02-28T06:36:38;0.00;99.90
9103;DHT22;4587;51.434;6.788;2023-02-28T06:39:04;0.00;99.90
9103;DHT22;4587;51.434;6.788;2023-02-28T06:41:30;0.00;99.90
9103;DHT22;4587;51.434;6.788;2023-02-28T06:43:55;0.10;99.90
9103;DHT22;4587;51.434;6.788;2023-02-28T06:46:21;0.20;99.90
9103;DHT22;4587;51.434;6.788;2023-02-28T06:48:47;0.20;99.90
9103;DHT22;4587;51.434;6.788;2023-02-28T06:51:15;0.20;99.90
9103;DHT22;4587;51.434;6.788;2023-02-28T06:53:41;0.20;99.90
9103;DHT22;4587;51.434;6.788;2023-02-28T06:56:08;0.20;99.90
9103;DHT22;4587;51.434;6.788;2023-02-28T06:58:35;0.30;99.90
9103;DHT22;4587;51.434;6.788;2023-02-28T07:01:01;0.60;99.90
9103;DHT22;4587;51.434;6.788;2023-02-28T07:03:26;0.70;99.90
9103;DHT22;4587;51.434;6.788;2023-02-28T07:05:52;0.80;99.90
9103;DHT22;4587;51.434;6.788;2023-02-28T07:08:17;1.20;99.90
9103;DHT22;4587;51.434;6.788;2023-02-28T07:10:43;1.10;99.90
9103;DHT22;4587;51.434;6.788;2023-02-28T07:13:10;1.20;99.90
9103;DHT22;4587;51.434;6.788;2023-02-28T07:15:36;1.40;99.90
9103;DHT22;4587;51.434;6.788;2023-02-28T07:18:02;1.70;99.90
9103;DHT22;4587;51.434;6.788;2023-02-28T07:20:29;2.10;99.90
9103;DHT22;4587;51.434;6.788;2023-02-28T07:22:55;2.80;99.90
9103;DHT22;4587;51.434;6.788;2023-02-28T07:25:25;4.10;99.90
9103;DHT22;4587;51.434;6.788;2023-02-28T07:27:51;5.30;99.90
9103;DHT22;4587;51.434;6.788;2023-02-28T07:30:17;6.30;99.90
9103;DHT22;4587;51.434;6.788;2023-02-28T07:32:43;7.30;99.90
9103;DHT22;4587;51.434;6.788;2023-02-28T07:35:09;7.90;99.90
9103;DHT22;4587;51.434;6.788;2023-02-28T07:37:34;8.70;98.60
9103;DHT22;4587;51.434;6.788;2023-02-28T07:40:08;8.90;96.90
9103;DHT22;4587;51.434;6.788;2023-02-28T07:42:35;9.00;96.30
9103;DHT22;4587;51.434;6.788;2023-02-28T07:45:01;9.60;95.90
9103;DHT22;4587;51.434;6.788;2023-02-28T07:47:29;9.60;94.30
9103;DHT22;4587;51.434;6.788;2023-02-28T07:49:55;9.70;93.60
9103;DHT22;4587;51.434;6.788;2023-02-28T07:52:21;9.70;93.50
9103;DHT22;4587;51.434;6.788;2023-02-28T07:54:46;10.10;92.50
9103;DHT22;4587;51.434;6.788;2023-02-28T07:57:12;10.20;92.00
9103;DHT22;4587;51.434;6.788;2023-02-28T07:59:37;10.50;91.80
9103;DHT22;4587;51.434;6.788;2023-02-28T08:02:03;10.20;91.10
9103;DHT22;4587;51.434;6.788;2023-02-28T08:04:32;10.30;91.00
9103;DHT22;4587;51.434;6.788;2023-02-28T08:06:57;10.60;90.70
9103;DHT22;4587;51.434;6.788;2023-02-28T08:09:23;10.80;91.10
9103;DHT22;4587;51.434;6.788;2023-02-28T08:11:49;9.70;90.60
9103;DHT22;4587;51.434;6.788;2023-02-28T08:14:14;8.70;91.40
9103;DHT22;4587;51.434;6.788;2023-02-28T08:16:40;8.60;92.20
9103;DHT22;4587;51.434;6.788;2023-02-28T08:19:05;9.40;92.50
9103;DHT22;4587;51.434;6.788;2023-02-28T08:21:32;10.20;91.90
9103;DHT22;4587;51.434;6.788;2023-02-28T08:23:58;10.30;90.00
9103;DHT22;4587;51.434;6.788;2023-02-28T08:26:24;10.50;90.20
9103;DHT22;4587;51.434;6.788;2023-02-28T08:28:49;10.90;90.10
9103;DHT22;4587;51.434;6.788;2023-02-28T08:31:16;11.70;88.00
9103;DHT22;4587;51.434;6.788;2023-02-28T08:33:42;12.10;85.00
9103;DHT22;4587;51.434;6.788;2023-02-28T08:36:09;12.10;83.80
9103;DHT22;4587;51.434;6.788;2023-02-28T08:38:36;12.20;83.50
9103;DHT22;4587;51.434;6.788;2023-02-28T08:41:07;12.70;82.30
9103;DHT22;4587;51.434;6.788;2023-02-28T08:43:34;12.60;80.20
9103;DHT22;4587;51.434;6.788;2023-02-28T08:46:00;12.90;79.50
9103;DHT22;4587;51.434;6.788;2023-02-28T08:48:28;12.80;78.00
9103;DHT22;4587;51.434;6.788;2023-02-28T08:50:56;12.00;78.80
9103;DHT22;4587;51.434;6.788;2023-02-28T08:53:21;11.60;78.20
9103;DHT22;4587;51.434;6.788;2023-02-28T08:55:47;11.70;78.80
9103;DHT22;4587;51.434;6.788;2023-02-28T08:58:20;12.10;78.40
9103;DHT22;4587;51.434;6.788;2023-02-28T09:00:45;12.20;76.90
9103;DHT22;4587;51.434;6.788;2023-02-28T09:03:11;12.10;77.20
9103;DHT22;4587;51.434;6.788;2023-02-28T09:05:36;11.90;75.30
9103;DHT22;4587;51.434;6.788;2023-02-28T09:08:02;10.90;71.70
9103;DHT22;4587;51.434;6.788;2023-02-28T09:10:27;11.00;74.60
9103;DHT22;4587;51.434;6.788;2023-02-28T09:12:53;11.40;74.30
9103;DHT22;4587;51.434;6.788;2023-02-28T09:15:19;11.40;71.80
9103;DHT22;4587;51.434;6.788;2023-02-28T09:17:44;11.60;71.90
9103;DHT22;4587;51.434;6.788;2023-02-28T09:20:10;11.80;72.00
9103;DHT22;4587;51.434;6.788;2023-02-28T09:22:36;11.40;69.50
9103;DHT22;4587;51.434;6.788;2023-02-28T09:25:01;11.70;69.50
9103;DHT22;4587;51.434;6.788;2023-02-28T09:27:27;11.70;67.90
9103;DHT22;4587;51.434;6.788;2023-02-28T09:29:52;12.00;69.00
9103;DHT22;4587;51.434;6.788;2023-02-28T09:32:18;12.10;67.50
9103;DHT22;4587;51.434;6.788;2023-02-28T09:34:44;12.00;69.00
9103;DHT22;4587;51.434;6.788;2023-02-28T09:37:09;12.10;67.50
9103;DHT22;4587;51.434;6.788;2023-02-28T09:39:35;11.50;65.60
9103;DHT22;4587;51.434;6.788;2023-02-28T09:42:02;10.50;65.30
9103;DHT22;4587;51.434;6.788;2023-02-28T09:44:35;10.10;67.00
9103;DHT22;4587;51.434;6.788;2023-02-28T09:49:53;10.80;68.20
9103;DHT22;4587;51.434;6.788;2023-02-28T09:52:27;11.10;68.00
9103;DHT22;4587;51.434;6.788;2023-02-28T09:54:53;11.80;68.20
9103;DHT22;4587;51.434;6.788;2023-02-28T09:57:38;11.50;66.70
9103;DHT22;4587;51.434;6.788;2023-02-28T10:03:15;10.40;65.00
9103;DHT22;4587;51.434;6.788;2023-02-28T10:10:48;6.90;69.90
9103;DHT22;4587;51.434;6.788;2023-02-28T10:13:46;6.50;71.20
9103;DHT22;4587;51.434;6.788;2023-02-28T10:24:05;5.90;74.40
9103;DHT22;4587;51.434;6.788;2023-02-28T10:26:36;5.80;75.00
9103;DHT22;4587;51.434;6.788;2023-02-28T10:29:03;5.90;75.20
9103;DHT22;4587;51.434;6.788;2023-02-28T10:31:29;5.90;75.60
9103;DHT22;4587;51.434;6.788;2023-02-28T10:33:55;6.00;75.10
9103;DHT22;4587;51.434;6.788;2023-02-28T10:36:21;6.00;75.60
9103;DHT22;4587;51.434;6.788;2023-02-28T10:38:47;5.90;74.70
9103;DHT22;4587;51.434;6.788;2023-02-28T10:43:42;5.80;75.80
9103;DHT22;4587;51.434;6.788;2023-02-28T10:48:39;5.90;75.90
9103;DHT22;4587;51.434;6.788;2023-02-28T10:51:10;5.90;76.40
9103;DHT22;4587;51.434;6.788;2023-02-28T10:53:47;6.00;76.50
9103;DHT22;4587;51.434;6.788;2023-02-28T10:56:18;6.10;75.20
9103;DHT22;4587;51.434;6.788;2023-02-28T10:58:58;6.00;75.50
9103;DHT22;4587;51.434;6.788;2023-02-28T11:03:53;5.90;75.40
9103;DHT22;4587;51.434;6.788;2023-02-28T11:06:30;5.90;75.90
9103;DHT22;4587;51.434;6.788;2023-02-28T11:09:23;5.80;76.30
9103;DHT22;4587;51.434;6.788;2023-02-28T11:11:50;5.90;77.40
9103;DHT22;4587;51.434;6.788;2023-02-28T11:14:25;6.10;78.50
9103;DHT22;4587;51.434;6.788;2023-02-28T11:16:52;6.20;76.90
9103;DHT22;4587;51.434;6.788;2023-02-28T11:19:28;6.30;75.80
9103;DHT22;4587;51.434;6.788;2023-02-28T11:22:00;6.20;73.70
9103;DHT22;4587;51.434;6.788;2023-02-28T11:24:35;6.00;73.50
9103;DHT22;4587;51.434;6.788;2023-02-28T11:27:02;5.80;73.90
9103;DHT22;4587;51.434;6.788;2023-02-28T11:29:30;5.80;74.00
9103;DHT22;4587;51.434;6.788;2023-02-28T11:34:35;5.90;74.00
9103;DHT22;4587;51.434;6.788;2023-02-28T11:37:01;5.80;73.90
9103;DHT22;4587;51.434;6.788;2023-02-28T11:39:31;5.90;74.60
9103;DHT22;4587;51.434;6.788;2023-02-28T11:45:33;6.20;73.70
9103;DHT22;4587;51.434;6.788;2023-02-28T11:56:52;5.90;74.40
9103;DHT22;4587;51.434;6.788;2023-02-28T12:13:50;5.90;75.50
9103;DHT22;4587;51.434;6.788;2023-02-28T12:19:02;6.10;76.30
9103;DHT22;4587;51.434;6.788;2023-02-28T12:26:46;6.50;75.60
9103;DHT22;4587;51.434;6.788;2023-02-28T12:29:20;6.50;76.10
9103;DHT22;4587;51.434;6.788;2023-02-28T12:34:41;6.70;75.90
9103;DHT22;4587;51.434;6.788;2023-02-28T12:37:17;6.80;76.50
9103;DHT22;4587;51.434;6.788;2023-02-28T12:39:51;6.80;75.70
9103;DHT22;4587;51.434;6.788;2023-02-28T12:42:27;6.80;75.40
9103;DHT22;4587;51.434;6.788;2023-02-28T12:44:58;6.60;75.60
9103;DHT22;4587;51.434;6.788;2023-02-28T12:47:26;6.60;76.20
9103;DHT22;4587;51.434;6.788;2023-02-28T12:50:05;6.60;76.70
9103;DHT22;4587;51.434;6.788;2023-02-28T13:00:25;6.60;76.00
9103;DHT22;4587;51.434;6.788;2023-02-28T13:11:29;6.30;76.40
9103;DHT22;4587;51.434;6.788;2023-02-28T13:14:01;6.20;77.70
9103;DHT22;4587;51.434;6.788;2023-02-28T13:16:27;6.30;78.50
9103;DHT22;4587;51.434;6.788;2023-02-28T13:19:08;6.40;77.90
9103;DHT22;4587;51.434;6.788;2023-02-28T13:21:42;6.40;77.10
9103;DHT22;4587;51.434;6.788;2023-02-28T13:24:09;6.40;77.20
9103;DHT22;4587;51.434;6.788;2023-02-28T13:34:32;6.60;79.40
9103;DHT22;4587;51.434;6.788;2023-02-28T13:39:49;6.70;80.70
9103;DHT22;4587;51.434;6.788;2023-02-28T13:53:16;6.80;80.40
9103;DHT22;4587;51.434;6.788;2023-02-28T13:55:53;6.80;80.80
9103;DHT22;4587;51.434;6.788;2023-02-28T14:01:30;6.90;82.40
9103;DHT22;4587;51.434;6.788;2023-02-28T14:04:28;6.90;82.70
9103;DHT22;4587;51.434;6.788;2023-02-28T14:06:59;6.90;82.60
9103;DHT22;4587;51.434;6.788;2023-02-28T14:09:35;6.90;82.60
9103;DHT22;4587;51.434;6.788;2023-02-28T14:15:58;6.90;82.70
9103;DHT22;4587;51.434;6.788;2023-02-28T14:18:21;6.80;83.20
9103;DHT22;4587;51.434;6.788;2023-02-28T14:20:47;6.70;83.90
9103;DHT22;4587;51.434;6.788;2023-02-28T14:23:31;6.70;84.20
9103;DHT22;4587;51.434;6.788;2023-02-28T14:26:32;6.60;84.50
9103;DHT22;4587;51.434;6.788;2023-02-28T14:29:25;6.60;85.20
9103;DHT22;4587;51.434;6.788;2023-02-28T14:32:13;6.80;85.10
9103;DHT22;4587;51.434;6.788;2023-02-28T14:37:38;6.70;84.60
9103;DHT22;4587;51.434;6.788;2023-02-28T14:40:16;6.70;85.30
9103;DHT22;4587;51.434;6.788;2023-02-28T14:43:17;6.60;85.90
9103;DHT22;4587;51.434;6.788;2023-02-28T14:45:34;6.70;84.70
9103;DHT22;4587;51.434;6.788;2023-02-28T14:48:02;6.60;85.70
9103;DHT22;4587;51.434;6.788;2023-02-28T14:50:34;6.60;86.30
9103;DHT22;4587;51.434;6.788;2023-02-28T14:53:01;6.60;87.00
9103;DHT22;4587;51.434;6.788;2023-02-28T14:55:34;6.50;87.30
9103;DHT22;4587;51.434;6.788;2023-02-28T14:58:03;6.60;88.00
9103;DHT22;4587;51.434;6.788;2023-02-28T15:00:32;6.60;88.00
9103;DHT22;4587;51.434;6.788;2023-02-28T15:03:00;6.60;87.70
9103;DHT22;4587;51.434;6.788;2023-02-28T15:05:33;6.60;87.80
9103;DHT22;4587;51.434;6.788;2023-02-28T15:10:31;6.50;86.90
9103;DHT22;4587;51.434;6.788;2023-02-28T15:13:21;6.50;86.80
9103;DHT22;4587;51.434;6.788;2023-02-28T15:21:39;6.40;86.50
9103;DHT22;4587;51.434;6.788;2023-02-28T15:24:13;6.40;87.10
9103;DHT22;4587;51.434;6.788;2023-02-28T15:26:42;6.40;88.60
9103;DHT22;4587;51.434;6.788;2023-02-28T15:29:23;6.40;89.10
9103;DHT22;4587;51.434;6.788;2023-02-28T15:31:56;6.50;89.80
9103;DHT22;4587;51.434;6.788;2023-02-28T15:34:28;6.40;89.80
9103;DHT22;4587;51.434;6.788;2023-02-28T15:36:54;6.30;90.00
9103;DHT22;4587;51.434;6.788;2023-02-28T15:39:25;6.20;90.30
9103;DHT22;4587;51.434;6.788;2023-02-28T15:41:55;6.30;90.50
9103;DHT22;4587;51.434;6.788;2023-02-28T15:44:34;6.30;90.00
9103;DHT22;4587;51.434;6.788;2023-02-28T15:47:06;6.20;89.60
9103;DHT22;4587;51.434;6.788;2023-02-28T15:49:53;6.30;90.10
9103;DHT22;4587;51.434;6.788;2023-02-28T15:52:33;6.20;90.30
9103;DHT22;4587;51.434;6.788;2023-02-28T15:55:11;6.20;90.30
9103;DHT22;4587;51.434;6.788;2023-02-28T15:57:40;6.30;90.00
9103;DHT22;4587;51.434;6.788;2023-02-28T16:00:12;6.20;89.60
9103;DHT22;4587;51.434;6.788;2023-02-28T16:02:39;6.10;89.40
9103;DHT22;4587;51.434;6.788;2023-02-28T16:07:35;5.90;90.00
9103;DHT22;4587;51.434;6.788;2023-02-28T16:10:01;6.00;90.60
9103;DHT22;4587;51.434;6.788;2023-02-28T16:12:30;6.00;90.70
9103;DHT22;4587;51.434;6.788;2023-02-28T16:14:58;6.00;91.00
9103;DHT22;4587;51.434;6.788;2023-02-28T16:17:29;6.00;91.00
9103;DHT22;4587;51.434;6.788;2023-02-28T16:19:55;6.10;91.40
9103;DHT22;4587;51.434;6.788;2023-02-28T16:22:21;6.00;91.30
9103;DHT22;4587;51.434;6.788;2023-02-28T16:24:47;6.00;91.50
9103;DHT22;4587;51.434;6.788;2023-02-28T16:27:32;5.90;92.00
9103;DHT22;4587;51.434;6.788;2023-02-28T16:30:01;5.80;92.30
9103;DHT22;4587;51.434;6.788;2023-02-28T16:32:27;5.80;92.70
9103;DHT22;4587;51.434;6.788;2023-02-28T16:34:52;5.70;93.00
9103;DHT22;4587;51.434;6.788;2023-02-28T16:37:18;5.70;93.20
9103;DHT22;4587;51.434;6.788;2023-02-28T16:39:44;5.60;93.50
9103;DHT22;4587;51.434;6.788;2023-02-28T16:42:25;5.60;93.60
9103;DHT22;4587;51.434;6.788;2023-02-28T16:44:51;5.60;93.90
9103;DHT22;4587;51.434;6.788;2023-02-28T16:47:17;5.60;93.80
9103;DHT22;4587;51.434;6.788;2023-02-28T16:49:43;5.50;93.50
9103;DHT22;4587;51.434;6.788;2023-02-28T16:52:09;5.50;93.40
9103;DHT22;4587;51.434;6.788;2023-02-28T16:54:37;5.50;93.80
9103;DHT22;4587;51.434;6.788;2023-02-28T16:57:03;5.50;93.50
9103;DHT22;4587;51.434;6.788;2023-02-28T16:59:29;5.50;93.40
9103;DHT22;4587;51.434;6.788;2023-02-28T17:01:56;5.40;93.90
9103;DHT22;4587;51.434;6.788;2023-02-28T17:04:26;5.40;93.70
9103;DHT22;4587;51.434;6.788;2023-02-28T17:06:51;5.20;93.80
9103;DHT22;4587;51.434;6.788;2023-02-28T17:09:20;5.10;94.00
9103;DHT22;4587;51.434;6.788;2023-02-28T17:11:46;5.00;94.50
9103;DHT22;4587;51.434;6.788;2023-02-28T17:14:12;5.10;94.30
9103;DHT22;4587;51.434;6.788;2023-02-28T17:16:39;5.10;94.30
9103;DHT22;4587;51.434;6.788;2023-02-28T17:19:07;5.00;94.50
9103;DHT22;4587;51.434;6.788;2023-02-28T17:21:37;4.90;94.80
9103;DHT22;4587;51.434;6.788;2023-02-28T17:24:03;5.00;94.60
9103;DHT22;4587;51.434;6.788;2023-02-28T17:26:29;5.10;94.60
9103;DHT22;4587;51.434;6.788;2023-02-28T17:28:56;5.00;94.80
9103;DHT22;4587;51.434;6.788;2023-02-28T17:31:23;4.80;95.10
9103;DHT22;4587;51.434;6.788;2023-02-28T17:33:48;4.80;95.20
9103;DHT22;4587;51.434;6.788;2023-02-28T17:36:17;4.70;95.50
9103;DHT22;4587;51.434;6.788;2023-02-28T17:38:47;4.80;95.70
9103;DHT22;4587;51.434;6.788;2023-02-28T17:41:13;4.80;95.90
9103;DHT22;4587;51.434;6.788;2023-02-28T17:43:39;4.60;96.10
9103;DHT22;4587;51.434;6.788;2023-02-28T17:46:05;4.50;96.40
9103;DHT22;4587;51.434;6.788;2023-02-28T17:48:32;4.50;96.90
9103;DHT22;4587;51.434;6.788;2023-02-28T17:50:58;4.50;96.90
9103;DHT22;4587;51.434;6.788;2023-02-28T17:53:24;4.30;97.10
9103;DHT22;4587;51.434;6.788;2023-02-28T17:55:50;4.30;97.60
9103;DHT22;4587;51.434;6.788;2023-02-28T17:58:16;4.30;98.00
9103;DHT22;4587;51.434;6.788;2023-02-28T18:00:44;4.20;98.00
9103;DHT22;4587;51.434;6.788;2023-02-28T18:03:09;4.20;98.50
9103;DHT22;4587;51.434;6.788;2023-02-28T18:05:35;4.30;98.60
9103;DHT22;4587;51.434;6.788;2023-02-28T18:08:02;4.20;98.90
9103;DHT22;4587;51.434;6.788;2023-02-28T18:10:27;4.10;99.00
9103;DHT22;4587;51.434;6.788;2023-02-28T18:12:53;4.10;99.50
9103;DHT22;4587;51.434;6.788;2023-02-28T18:15:20;4.10;99.40
9103;DHT22;4587;51.434;6.788;2023-02-28T18:17:47;4.20;99.70
9103;DHT22;4587;51.434;6.788;2023-02-28T18:20:13;4.20;99.70
9103;DHT22;4587;51.434;6.788;2023-02-28T18:22:40;4.10;99.90
9103;DHT22;4587;51.434;6.788;2023-02-28T18:25:07;4.20;99.90
9103;DHT22;4587;51.434;6.788;2023-02-28T18:27:34;4.20;99.90
9103;DHT22;4587;51.434;6.788;2023-02-28T18:30:01;4.10;99.90
9103;DHT22;4587;51.434;6.788;2023-02-28T18:32:28;4.00;99.90
9103;DHT22;4587;51.434;6.788;2023-02-28T18:34:53;3.90;99.90
9103;DHT22;4587;51.434;6.788;2023-02-28T18:37:19;3.80;99.90
9103;DHT22;4587;51.434;6.788;2023-02-28T18:39:45;3.80;99.90
9103;DHT22;4587;51.434;6.788;2023-02-28T18:42:10;3.80;99.90
9103;DHT22;4587;51.434;6.788;2023-02-28T18:44:37;3.70;99.90
9103;DHT22;4587;51.434;6.788;2023-02-28T18:47:02;3.60;99.90
9103;DHT22;4587;51.434;6.788;2023-02-28T18:49:30;3.50;99.90
9103;DHT22;4587;51.434;6.788;2023-02-28T18:51:58;3.50;99.90
9103;DHT22;4587;51.434;6.788;2023-02-28T18:54:24;3.50;99.90
9103;DHT22;4587;51.434;6.788;2023-02-28T18:56:50;3.60;99.90
9103;DHT22;4587;51.434;6.788;2023-02-28T18:59:15;3.60;99.90
9103;DHT22;4587;51.434;6.788;2023-02-28T19:01:41;3.60;99.90
9103;DHT22;4587;51.434;6.788;2023-02-28T19:04:09;3.50;99.90
9103;DHT22;4587;51.434;6.788;2023-02-28T19:06:36;3.50;99.90